sensor_id;sensor_type;location;lat;lon;timestamp;temperature;humidity
82506;SHT30;72144;51.444;10.560;2023-09-07T00:00:13;21.60;50.54
82506;SHT30;72144;51.444;10.560;2023-09-07T00:02:39;21.56;50.70
82506;SHT30;72144;51.444;10.560;2023-09-07T00:05:06;21.51;50.74
82506;SHT30;72144;51.444;10.560;2023-09-07T00:07:32;21.47;50.74
82506;SHT30;72144;51.444;10.560;2023-09-07T00:09:57;21.46;50.93
82506;SHT30;72144;51.444;10.560;2023-09-07T00:12:22;21.43;50.98
82506;SHT30;72144;51.444;10.560;2023-09-07T00:14:48;21.39;51.04
82506;SHT30;72144;51.444;10.560;2023-09-07T00:17:13;21.35;51.11
82506;SHT30;72144;51.444;10.560;2023-09-07T00:19:39;21.32;51.16
82506;SHT30;72144;51.444;10.560;2023-09-07T00:22:04;21.28;51.25
82506;SHT30;72144;51.444;10.560;2023-09-07T00:24:30;21.25;51.31
82506;SHT30;72144;51.444;10.560;2023-09-07T00:26:57;21.21;51.35
82506;SHT30;72144;51.444;10.560;2023-09-07T00:29:22;21.22;51.40
82506;SHT30;72144;51.444;10.560;2023-09-07T00:31:48;21.21;51.44
82506;SHT30;72144;51.444;10.560;2023-09-07T00:34:14;21.15;51.55
82506;SHT30;72144;51.444;10.560;2023-09-07T00:36:39;21.12;51.65
82506;SHT30;72144;51.444;10.560;2023-09-07T00:39:04;21.09;51.55
82506;SHT30;72144;51.444;10.560;2023-09-07T00:41:30;21.08;51.70
82506;SHT30;72144;51.444;10.560;2023-09-07T00:43:55;21.02;51.82
82506;SHT30;72144;51.444;10.560;2023-09-07T00:46:21;21.01;51.71
82506;SHT30;72144;51.444;10.560;2023-09-07T00:48:48;20.94;51.76
82506;SHT30;72144;51.444;10.560;2023-09-07T00:51:13;20.91;51.88
82506;SHT30;72144;51.444;10.560;2023-09-07T00:53:39;20.90;51.88
82506;SHT30;72144;51.444;10.560;2023-09-07T00:56:06;20.87;51.94
82506;SHT30;72144;51.444;10.560;2023-09-07T00:58:31;20.84;52.02
82506;SHT30;72144;51.444;10.560;2023-09-07T01:00:57;20.78;52.06
82506;SHT30;72144;51.444;10.560;2023-09-07T01:03:24;20.77;52.07
82506;SHT30;72144;51.444;10.560;2023-09-07T01:05:58;20.73;52.23
82506;SHT30;72144;51.444;10.560;2023-09-07T01:08:32;20.71;52.28
82506;SHT30;72144;51.444;10.560;2023-09-07T01:11:00;20.70;52.17
82506;SHT30;72144;51.444;10.560;2023-09-07T01:13:25;20.68;52.18
82506;SHT30;72144;51.444;10.560;2023-09-07T01:15:52;20.66;52.14
82506;SHT30;72144;51.444;10.560;2023-09-07T01:18:17;20.61;52.15
82506;SHT30;72144;51.444;10.560;2023-09-07T01:20:45;20.57;52.30
82506;SHT30;72144;51.444;10.560;2023-09-07T01:23:11;20.54;52.36
82506;SHT30;72144;51.444;10.560;2023-09-07T01:25:37;20.52;52.50
82506;SHT30;72144;51.444;10.560;2023-09-07T01:28:04;20.46;52.56
82506;SHT30;72144;51.444;10.560;2023-09-07T01:30:29;20.46;52.63
82506;SHT30;72144;51.444;10.560;2023-09-07T01:32:54;20.42;52.60
82506;SHT30;72144;51.444;10.560;2023-09-07T01:35:21;20.39;52.65
82506;SHT30;72144;51.444;10.560;2023-09-07T01:37:47;20.36;52.74
82506;SHT30;72144;51.444;10.560;2023-09-07T01:40:13;20.32;52.86
82506;SHT30;72144;51.444;10.560;2023-09-07T01:42:38;20.32;52.82
82506;SHT30;72144;51.444;10.560;2023-09-07T01:45:04;20.25;52.91
82506;SHT30;72144;51.444;10.560;2023-09-07T01:47:30;20.22;53.01
82506;SHT30;72144;51.444;10.560;2023-09-07T01:49:55;20.18;53.08
82506;SHT30;72144;51.444;10.560;2023-09-07T01:52:21;20.14;53.11
82506;SHT30;72144;51.444;10.560;2023-09-07T01:54:46;20.11;53.14
82506;SHT30;72144;51.444;10.560;2023-09-07T01:57:12;20.08;53.25
82506;SHT30;72144;51.444;10.560;2023-09-07T01:59:37;20.05;53.29
82506;SHT30;72144;51.444;10.560;2023-09-07T02:02:02;20.02;53.44
82506;SHT30;72144;51.444;10.560;2023-09-07T02:04:29;19.97;53.43
82506;SHT30;72144;51.444;10.560;2023-09-07T02:06:54;19.95;53.42
82506;SHT30;72144;51.444;10.560;2023-09-07T02:09:20;19.92;53.39
82506;SHT30;72144;51.444;10.560;2023-09-07T02:11:45;19.88;53.38
82506;SHT30;72144;51.444;10.560;2023-09-07T02:14:10;19.87;53.35
82506;SHT30;72144;51.444;10.560;2023-09-07T02:16:36;19.84;53.36
82506;SHT30;72144;51.444;10.560;2023-09-07T02:19:02;19.82;53.43
82506;SHT30;72144;51.444;10.560;2023-09-07T02:21:28;19.78;53.32
82506;SHT30;72144;51.444;10.560;2023-09-07T02:23:54;19.75;53.41
82506;SHT30;72144;51.444;10.560;2023-09-07T02:26:19;19.67;53.41
82506;SHT30;72144;51.444;10.560;2023-09-07T02:28:45;19.64;53.41
82506;SHT30;72144;51.444;10.560;2023-09-07T02:31:10;19.60;53.36
82506;SHT30;72144;51.444;10.560;2023-09-07T02:33:36;19.56;53.51
82506;SHT30;72144;51.444;10.560;2023-09-07T02:36:02;19.54;53.65
82506;SHT30;72144;51.444;10.560;2023-09-07T02:38:28;19.49;53.62
82506;SHT30;72144;51.444;10.560;2023-09-07T02:40:55;19.43;53.62
82506;SHT30;72144;51.444;10.560;2023-09-07T02:43:20;19.40;53.65
82506;SHT30;72144;51.444;10.560;2023-09-07T02:45:48;19.36;53.67
82506;SHT30;72144;51.444;10.560;2023-09-07T02:48:13;19.35;53.69
82506;SHT30;72144;51.444;10.560;2023-09-07T02:50:39;19.33;53.67
82506;SHT30;72144;51.444;10.560;2023-09-07T02:53:05;19.28;53.81
82506;SHT30;72144;51.444;10.560;2023-09-07T02:55:30;19.23;53.81
82506;SHT30;72144;51.444;10.560;2023-09-07T02:57:56;19.16;53.81
82506;SHT30;72144;51.444;10.560;2023-09-07T03:00:22;19.12;53.85
82506;SHT30;72144;51.444;10.560;2023-09-07T03:02:47;19.12;53.83
82506;SHT30;72144;51.444;10.560;2023-09-07T03:05:16;19.07;53.96
82506;SHT30;72144;51.444;10.560;2023-09-07T03:07:45;19.00;54.26
82506;SHT30;72144;51.444;10.560;2023-09-07T03:10:10;18.98;54.18
82506;SHT30;72144;51.444;10.560;2023-09-07T03:12:36;18.94;54.30
82506;SHT30;72144;51.444;10.560;2023-09-07T03:15:02;18.90;54.26
82506;SHT30;72144;51.444;10.560;2023-09-07T03:17:29;18.87;54.36
82506;SHT30;72144;51.444;10.560;2023-09-07T03:19:54;18.83;54.47
82506;SHT30;72144;51.444;10.560;2023-09-07T03:22:19;18.80;54.45
82506;SHT30;72144;51.444;10.560;2023-09-07T03:24:45;18.78;54.56
82506;SHT30;72144;51.444;10.560;2023-09-07T03:27:10;18.74;54.72
82506;SHT30;72144;51.444;10.560;2023-09-07T03:29:36;18.71;54.82
82506;SHT30;72144;51.444;10.560;2023-09-07T03:32:02;18.67;54.96
82506;SHT30;72144;51.444;10.560;2023-09-07T03:34:28;18.67;54.95
82506;SHT30;72144;51.444;10.560;2023-09-07T03:36:53;18.60;55.15
82506;SHT30;72144;51.444;10.560;2023-09-07T03:39:18;18.61;55.15
82506;SHT30;72144;51.444;10.560;2023-09-07T03:41:46;18.55;55.11
82506;SHT30;72144;51.444;10.560;2023-09-07T03:44:12;18.53;55.18
82506;SHT30;72144;51.444;10.560;2023-09-07T03:46:37;18.46;55.05
82506;SHT30;72144;51.444;10.560;2023-09-07T03:49:03;18.47;55.08
82506;SHT30;72144;51.444;10.560;2023-09-07T03:51:28;18.42;55.08
82506;SHT30;72144;51.444;10.560;2023-09-07T03:53:54;18.42;55.10
82506;SHT30;72144;51.444;10.560;2023-09-07T03:56:19;18.38;55.08
82506;SHT30;72144;51.444;10.560;2023-09-07T03:58:44;18.36;55.08
82506;SHT30;72144;51.444;10.560;2023-09-07T04:01:12;18.32;55.13
82506;SHT30;72144;51.444;10.560;2023-09-07T04:03:38;18.29;55.16
82506;SHT30;72144;51.444;10.560;2023-09-07T04:06:03;18.24;55.19
82506;SHT30;72144;51.444;10.560;2023-09-07T04:08:29;18.21;55.32
82506;SHT30;72144;51.444;10.560;2023-09-07T04:10:55;18.15;55.37
82506;SHT30;72144;51.444;10.560;2023-09-07T04:13:21;18.14;55.46
82506;SHT30;72144;51.444;10.560;2023-09-07T04:15:47;18.11;55.50
82506;SHT30;72144;51.444;10.560;2023-09-07T04:18:13;18.06;55.45
82506;SHT30;72144;51.444;10.560;2023-09-07T04:20:40;18.04;55.65
82506;SHT30;72144;51.444;10.560;2023-09-07T04:23:38;18.00;55.74
82506;SHT30;72144;51.444;10.560;2023-09-07T04:26:11;17.97;56.01
82506;SHT30;72144;51.444;10.560;2023-09-07T04:28:37;17.97;55.92
82506;SHT30;72144;51.444;10.560;2023-09-07T04:31:06;17.93;56.02
82506;SHT30;72144;51.444;10.560;2023-09-07T04:33:33;17.90;56.05
82506;SHT30;72144;51.444;10.560;2023-09-07T04:36:11;17.87;56.43
82506;SHT30;72144;51.444;10.560;2023-09-07T04:38:37;17.83;56.18
82506;SHT30;72144;51.444;10.560;2023-09-07T04:41:13;17.83;56.47
82506;SHT30;72144;51.444;10.560;2023-09-07T04:43:39;17.80;56.35
82506;SHT30;72144;51.444;10.560;2023-09-07T04:46:06;17.78;56.40
82506;SHT30;72144;51.444;10.560;2023-09-07T04:48:32;17.73;56.45
82506;SHT30;72144;51.444;10.560;2023-09-07T04:50:59;17.71;56.56
82506;SHT30;72144;51.444;10.560;2023-09-07T04:53:24;17.70;56.68
82506;SHT30;72144;51.444;10.560;2023-09-07T04:55:50;17.67;56.79
82506;SHT30;72144;51.444;10.560;2023-09-07T04:58:15;17.67;56.80
82506;SHT30;72144;51.444;10.560;2023-09-07T05:00:40;17.63;56.77
82506;SHT30;72144;51.444;10.560;2023-09-07T05:03:06;17.63;56.89
82506;SHT30;72144;51.444;10.560;2023-09-07T05:05:31;17.60;56.93
82506;SHT30;72144;51.444;10.560;2023-09-07T05:07:57;17.59;57.04
82506;SHT30;72144;51.444;10.560;2023-09-07T05:10:22;17.59;57.10
82506;SHT30;72144;51.444;10.560;2023-09-07T05:12:47;17.59;57.09
82506;SHT30;72144;51.444;10.560;2023-09-07T05:15:13;17.57;57.20
82506;SHT30;72144;51.444;10.560;2023-09-07T05:17:38;17.57;57.14
82506;SHT30;72144;51.444;10.560;2023-09-07T05:20:04;17.54;57.32
82506;SHT30;72144;51.444;10.560;2023-09-07T05:22:29;17.53;57.35
82506;SHT30;72144;51.444;10.560;2023-09-07T05:24:55;17.52;57.44
82506;SHT30;72144;51.444;10.560;2023-09-07T05:27:20;17.49;57.62
82506;SHT30;72144;51.444;10.560;2023-09-07T05:29:45;17.45;57.78
82506;SHT30;72144;51.444;10.560;2023-09-07T05:32:11;17.45;57.84
82506;SHT30;72144;51.444;10.560;2023-09-07T05:34:36;17.45;58.00
82506;SHT30;72144;51.444;10.560;2023-09-07T05:37:02;17.45;58.21
82506;SHT30;72144;51.444;10.560;2023-09-07T05:39:27;17.42;58.37
82506;SHT30;72144;51.444;10.560;2023-09-07T05:41:52;17.42;58.50
82506;SHT30;72144;51.444;10.560;2023-09-07T05:44:18;17.45;58.57
82506;SHT30;72144;51.444;10.560;2023-09-07T05:46:43;17.40;58.79
82506;SHT30;72144;51.444;10.560;2023-09-07T05:49:08;17.40;58.93
82506;SHT30;72144;51.444;10.560;2023-09-07T05:51:34;17.40;58.97
82506;SHT30;72144;51.444;10.560;2023-09-07T05:53:59;17.40;58.94
82506;SHT30;72144;51.444;10.560;2023-09-07T05:56:25;17.39;58.87
82506;SHT30;72144;51.444;10.560;2023-09-07T05:58:50;17.40;58.93
82506;SHT30;72144;51.444;10.560;2023-09-07T06:01:16;17.40;58.97
82506;SHT30;72144;51.444;10.560;2023-09-07T06:03:41;17.42;59.11
82506;SHT30;72144;51.444;10.560;2023-09-07T06:06:06;17.42;59.11
82506;SHT30;72144;51.444;10.560;2023-09-07T06:08:32;17.40;59.19
82506;SHT30;72144;51.444;10.560;2023-09-07T06:10:57;17.43;59.18
82506;SHT30;72144;51.444;10.560;2023-09-07T06:13:23;17.45;59.47
82506;SHT30;72144;51.444;10.560;2023-09-07T06:15:48;17.46;59.49
82506;SHT30;72144;51.444;10.560;2023-09-07T06:18:13;17.47;59.73
82506;SHT30;72144;51.444;10.560;2023-09-07T06:20:39;17.47;59.78
82506;SHT30;72144;51.444;10.560;2023-09-07T06:23:04;17.49;59.85
82506;SHT30;72144;51.444;10.560;2023-09-07T06:25:29;17.49;59.95
82506;SHT30;72144;51.444;10.560;2023-09-07T06:27:55;17.52;60.18
82506;SHT30;72144;51.444;10.560;2023-09-07T06:30:20;17.53;60.35
82506;SHT30;72144;51.444;10.560;2023-09-07T06:32:46;17.54;60.32
82506;SHT30;72144;51.444;10.560;2023-09-07T06:35:12;17.59;60.45
82506;SHT30;72144;51.444;10.560;2023-09-07T06:37:38;17.57;60.54
82506;SHT30;72144;51.444;10.560;2023-09-07T06:40:06;17.62;60.56
82506;SHT30;72144;51.444;10.560;2023-09-07T06:42:32;17.63;60.83
82506;SHT30;72144;51.444;10.560;2023-09-07T06:44:57;17.67;60.87
82506;SHT30;72144;51.444;10.560;2023-09-07T06:47:23;17.66;61.12
82506;SHT30;72144;51.444;10.560;2023-09-07T06:49:48;17.71;61.34
82506;SHT30;72144;51.444;10.560;2023-09-07T06:52:14;17.71;61.30
82506;SHT30;72144;51.444;10.560;2023-09-07T06:54:40;17.76;61.52
82506;SHT30;72144;51.444;10.560;2023-09-07T06:57:07;17.77;61.77
82506;SHT30;72144;51.444;10.560;2023-09-07T06:59:33;17.80;61.66
82506;SHT30;72144;51.444;10.560;2023-09-07T07:01:59;17.81;62.01
82506;SHT30;72144;51.444;10.560;2023-09-07T07:04:25;17.84;61.91
82506;SHT30;72144;51.444;10.560;2023-09-07T07:06:51;17.90;62.10
82506;SHT30;72144;51.444;10.560;2023-09-07T07:09:16;17.88;62.19
82506;SHT30;72144;51.444;10.560;2023-09-07T07:11:42;17.93;62.11
82506;SHT30;72144;51.444;10.560;2023-09-07T07:14:08;17.97;62.38
82506;SHT30;72144;51.444;10.560;2023-09-07T07:16:34;17.97;62.46
82506;SHT30;72144;51.444;10.560;2023-09-07T07:18:59;18.02;62.83
82506;SHT30;72144;51.444;10.560;2023-09-07T07:21:25;18.05;63.08
82506;SHT30;72144;51.444;10.560;2023-09-07T07:23:50;18.09;63.06
82506;SHT30;72144;51.444;10.560;2023-09-07T07:26:16;18.14;63.14
82506;SHT30;72144;51.444;10.560;2023-09-07T07:28:42;18.16;63.44
82506;SHT30;72144;51.444;10.560;2023-09-07T07:31:08;18.22;63.44
82506;SHT30;72144;51.444;10.560;2023-09-07T07:33:37;18.29;63.86
82506;SHT30;72144;51.444;10.560;2023-09-07T07:36:04;18.33;64.10
82506;SHT30;72144;51.444;10.560;2023-09-07T07:38:29;18.39;64.36
82506;SHT30;72144;51.444;10.560;2023-09-07T07:40:54;18.46;64.67
82506;SHT30;72144;51.444;10.560;2023-09-07T07:43:20;18.52;64.91
82506;SHT30;72144;51.444;10.560;2023-09-07T07:45:45;18.61;64.82
82506;SHT30;72144;51.444;10.560;2023-09-07T07:48:10;18.68;64.65
82506;SHT30;72144;51.444;10.560;2023-09-07T07:50:39;18.70;64.81
82506;SHT30;72144;51.444;10.560;2023-09-07T07:53:05;18.81;64.95
82506;SHT30;72144;51.444;10.560;2023-09-07T07:55:34;18.87;65.03
82506;SHT30;72144;51.444;10.560;2023-09-07T07:58:07;18.97;64.83
82506;SHT30;72144;51.444;10.560;2023-09-07T08:00:38;19.05;65.06
82506;SHT30;72144;51.444;10.560;2023-09-07T08:03:04;19.14;64.91
82506;SHT30;72144;51.444;10.560;2023-09-07T08:05:33;19.26;65.05
82506;SHT30;72144;51.444;10.560;2023-09-07T08:07:59;19.35;65.00
82506;SHT30;72144;51.444;10.560;2023-09-07T08:10:25;19.40;65.07
82506;SHT30;72144;51.444;10.560;2023-09-07T08:12:54;19.50;65.30
82506;SHT30;72144;51.444;10.560;2023-09-07T08:15:20;19.62;65.31
82506;SHT30;72144;51.444;10.560;2023-09-07T08:17:48;19.70;65.31
82506;SHT30;72144;51.444;10.560;2023-09-07T08:20:14;19.81;65.13
82506;SHT30;72144;51.444;10.560;2023-09-07T08:22:40;19.90;65.01
82506;SHT30;72144;51.444;10.560;2023-09-07T08:25:08;20.01;64.88
82506;SHT30;72144;51.444;10.560;2023-09-07T08:27:33;20.12;64.85
82506;SHT30;72144;51.444;10.560;2023-09-07T08:29:59;20.22;64.37
82506;SHT30;72144;51.444;10.560;2023-09-07T08:32:24;20.33;64.31
82506;SHT30;72144;51.444;10.560;2023-09-07T08:34:50;20.42;64.11
82506;SHT30;72144;51.444;10.560;2023-09-07T08:37:16;20.54;63.95
82506;SHT30;72144;51.444;10.560;2023-09-07T08:39:42;20.70;63.54
82506;SHT30;72144;51.444;10.560;2023-09-07T08:42:07;20.77;63.38
82506;SHT30;72144;51.444;10.560;2023-09-07T08:44:34;20.85;63.32
82506;SHT30;72144;51.444;10.560;2023-09-07T08:47:02;20.99;63.24
82506;SHT30;72144;51.444;10.560;2023-09-07T08:49:29;21.09;62.97
82506;SHT30;72144;51.444;10.560;2023-09-07T08:51:59;21.22;63.16
82506;SHT30;72144;51.444;10.560;2023-09-07T08:54:25;21.32;62.99
82506;SHT30;72144;51.444;10.560;2023-09-07T08:56:50;21.45;62.88
82506;SHT30;72144;51.444;10.560;2023-09-07T08:59:16;21.56;62.48
82506;SHT30;72144;51.444;10.560;2023-09-07T09:01:41;21.67;62.31
82506;SHT30;72144;51.444;10.560;2023-09-07T09:04:07;21.80;62.17
82506;SHT30;72144;51.444;10.560;2023-09-07T09:06:33;21.94;61.99
82506;SHT30;72144;51.444;10.560;2023-09-07T09:08:59;22.04;61.84
82506;SHT30;72144;51.444;10.560;2023-09-07T09:11:25;22.15;61.77
82506;SHT30;72144;51.444;10.560;2023-09-07T09:13:53;22.30;61.75
82506;SHT30;72144;51.444;10.560;2023-09-07T09:16:19;22.42;61.47
82506;SHT30;72144;51.444;10.560;2023-09-07T09:18:56;22.54;61.10
82506;SHT30;72144;51.444;10.560;2023-09-07T09:21:23;22.68;60.74
82506;SHT30;72144;51.444;10.560;2023-09-07T09:23:50;22.81;60.56
82506;SHT30;72144;51.444;10.560;2023-09-07T09:26:16;22.94;60.32
82506;SHT30;72144;51.444;10.560;2023-09-07T09:28:42;23.08;60.44
82506;SHT30;72144;51.444;10.560;2023-09-07T09:31:08;23.22;60.11
82506;SHT30;72144;51.444;10.560;2023-09-07T09:33:40;23.34;60.11
82506;SHT30;72144;51.444;10.560;2023-09-07T09:36:07;23.49;59.94
82506;SHT30;72144;51.444;10.560;2023-09-07T09:38:33;23.59;59.88
82506;SHT30;72144;51.444;10.560;2023-09-07T09:40:59;23.73;59.74
82506;SHT30;72144;51.444;10.560;2023-09-07T09:43:28;23.85;59.56
82506;SHT30;72144;51.444;10.560;2023-09-07T09:45:53;24.02;59.15
82506;SHT30;72144;51.444;10.560;2023-09-07T09:48:19;24.13;58.98
82506;SHT30;72144;51.444;10.560;2023-09-07T09:50:49;24.26;58.78
82506;SHT30;72144;51.444;10.560;2023-09-07T09:53:16;24.37;58.49
82506;SHT30;72144;51.444;10.560;2023-09-07T09:55:45;24.52;58.36
82506;SHT30;72144;51.444;10.560;2023-09-07T09:58:15;24.64;58.12
82506;SHT30;72144;51.444;10.560;2023-09-07T10:00:46;24.77;57.93
82506;SHT30;72144;51.444;10.560;2023-09-07T10:03:25;24.92;57.60
82506;SHT30;72144;51.444;10.560;2023-09-07T10:05:52;25.05;57.57
82506;SHT30;72144;51.444;10.560;2023-09-07T10:08:19;25.20;57.49
82506;SHT30;72144;51.444;10.560;2023-09-07T10:10:52;25.35;57.05
82506;SHT30;72144;51.444;10.560;2023-09-07T10:13:32;25.50;56.82
82506;SHT30;72144;51.444;10.560;2023-09-07T10:18:34;25.81;56.37
82506;SHT30;72144;51.444;10.560;2023-09-07T10:21:00;25.89;56.10
82506;SHT30;72144;51.444;10.560;2023-09-07T10:23:41;26.06;55.85
82506;SHT30;72144;51.444;10.560;2023-09-07T10:26:15;26.19;55.52
82506;SHT30;72144;51.444;10.560;2023-09-07T10:28:41;26.31;55.52
82506;SHT30;72144;51.444;10.560;2023-09-07T10:31:18;26.43;55.02
82506;SHT30;72144;51.444;10.560;2023-09-07T10:33:45;26.54;54.99
82506;SHT30;72144;51.444;10.560;2023-09-07T10:36:27;26.67;54.97
82506;SHT30;72144;51.444;10.560;2023-09-07T10:38:56;26.78;54.47
82506;SHT30;72144;51.444;10.560;2023-09-07T10:41:22;26.91;54.55
82506;SHT30;72144;51.444;10.560;2023-09-07T10:43:53;27.01;54.33
82506;SHT30;72144;51.444;10.560;2023-09-07T10:46:19;27.15;54.20
82506;SHT30;72144;51.444;10.560;2023-09-07T10:48:51;27.30;53.94
82506;SHT30;72144;51.444;10.560;2023-09-07T10:51:20;27.40;53.67
82506;SHT30;72144;51.444;10.560;2023-09-07T10:53:46;27.50;53.51
82506;SHT30;72144;51.444;10.560;2023-09-07T10:56:11;27.64;53.16
82506;SHT30;72144;51.444;10.560;2023-09-07T10:58:37;27.77;52.99
82506;SHT30;72144;51.444;10.560;2023-09-07T11:01:08;27.91;52.87
82506;SHT30;72144;51.444;10.560;2023-09-07T11:03:34;28.04;52.40
82506;SHT30;72144;51.444;10.560;2023-09-07T11:06:08;28.16;52.06
82506;SHT30;72144;51.444;10.560;2023-09-07T11:08:34;28.26;51.85
82506;SHT30;72144;51.444;10.560;2023-09-07T11:11:01;28.35;51.48
82506;SHT30;72144;51.444;10.560;2023-09-07T11:13:28;28.44;51.12
82506;SHT30;72144;51.444;10.560;2023-09-07T11:15:55;28.53;51.07
82506;SHT30;72144;51.444;10.560;2023-09-07T11:18:21;28.64;51.02
82506;SHT30;72144;51.444;10.560;2023-09-07T11:20:48;28.74;50.92
82506;SHT30;72144;51.444;10.560;2023-09-07T11:23:14;28.86;50.84
82506;SHT30;72144;51.444;10.560;2023-09-07T11:25:39;28.97;50.83
82506;SHT30;72144;51.444;10.560;2023-09-07T11:28:06;29.06;50.45
82506;SHT30;72144;51.444;10.560;2023-09-07T11:30:34;29.20;50.24
82506;SHT30;72144;51.444;10.560;2023-09-07T11:33:06;29.32;49.98
82506;SHT30;72144;51.444;10.560;2023-09-07T11:35:35;29.40;49.72
82506;SHT30;72144;51.444;10.560;2023-09-07T11:38:02;29.50;49.67
82506;SHT30;72144;51.444;10.560;2023-09-07T11:40:29;29.64;49.59
82506;SHT30;72144;51.444;10.560;2023-09-07T11:42:55;29.74;49.26
82506;SHT30;72144;51.444;10.560;2023-09-07T11:45:20;29.84;49.17
82506;SHT30;72144;51.444;10.560;2023-09-07T11:47:46;29.92;48.97
82506;SHT30;72144;51.444;10.560;2023-09-07T11:50:11;30.02;48.82
82506;SHT30;72144;51.444;10.560;2023-09-07T11:52:36;30.11;48.84
82506;SHT30;72144;51.444;10.560;2023-09-07T11:55:02;30.18;48.56
82506;SHT30;72144;51.444;10.560;2023-09-07T11:57:29;30.29;48.16
82506;SHT30;72144;51.444;10.560;2023-09-07T11:59:54;30.37;47.95
82506;SHT30;72144;51.444;10.560;2023-09-07T12:02:20;30.43;47.98
82506;SHT30;72144;51.444;10.560;2023-09-07T12:04:47;30.56;47.96
82506;SHT30;72144;51.444;10.560;2023-09-07T12:07:12;30.63;47.94
82506;SHT30;72144;51.444;10.560;2023-09-07T12:09:38;30.70;47.76
82506;SHT30;72144;51.444;10.560;2023-09-07T12:12:04;30.80;47.33
82506;SHT30;72144;51.444;10.560;2023-09-07T12:14:29;30.85;47.34
82506;SHT30;72144;51.444;10.560;2023-09-07T12:16:56;30.96;47.03
82506;SHT30;72144;51.444;10.560;2023-09-07T12:19:21;31.01;47.15
82506;SHT30;72144;51.444;10.560;2023-09-07T12:21:47;31.11;47.22
82506;SHT30;72144;51.444;10.560;2023-09-07T12:24:12;31.18;47.14
82506;SHT30;72144;51.444;10.560;2023-09-07T12:26:38;31.27;46.72
82506;SHT30;72144;51.444;10.560;2023-09-07T12:29:04;31.33;46.74
82506;SHT30;72144;51.444;10.560;2023-09-07T12:31:29;31.46;46.64
82506;SHT30;72144;51.444;10.560;2023-09-07T12:33:56;31.50;46.44
82506;SHT30;72144;51.444;10.560;2023-09-07T12:36:22;31.61;46.34
82506;SHT30;72144;51.444;10.560;2023-09-07T12:38:47;31.70;46.24
82506;SHT30;72144;51.444;10.560;2023-09-07T12:41:12;31.77;46.14
82506;SHT30;72144;51.444;10.560;2023-09-07T12:43:38;31.85;46.06
82506;SHT30;72144;51.444;10.560;2023-09-07T12:46:04;31.92;45.83
82506;SHT30;72144;51.444;10.560;2023-09-07T12:48:29;32.01;45.59
82506;SHT30;72144;51.444;10.560;2023-09-07T12:50:55;32.06;45.05
82506;SHT30;72144;51.444;10.560;2023-09-07T12:53:20;32.13;45.21
82506;SHT30;72144;51.444;10.560;2023-09-07T12:55:51;32.18;44.96
82506;SHT30;72144;51.444;10.560;2023-09-07T12:58:17;32.21;44.97
82506;SHT30;72144;51.444;10.560;2023-09-07T13:00:42;32.28;44.99
82506;SHT30;72144;51.444;10.560;2023-09-07T13:03:07;32.32;44.96
82506;SHT30;72144;51.444;10.560;2023-09-07T13:05:33;32.39;44.75
82506;SHT30;72144;51.444;10.560;2023-09-07T13:07:58;32.43;44.73
82506;SHT30;72144;51.444;10.560;2023-09-07T13:10:25;32.49;44.28
82506;SHT30;72144;51.444;10.560;2023-09-07T13:12:50;32.52;44.54
82506;SHT30;72144;51.444;10.560;2023-09-07T13:15:16;32.56;43.94
82506;SHT30;72144;51.444;10.560;2023-09-07T13:17:41;32.60;43.99
82506;SHT30;72144;51.444;10.560;2023-09-07T13:20:07;32.66;43.93
82506;SHT30;72144;51.444;10.560;2023-09-07T13:22:32;32.70;43.84
82506;SHT30;72144;51.444;10.560;2023-09-07T13:24:58;32.74;43.93
82506;SHT30;72144;51.444;10.560;2023-09-07T13:27:23;32.75;43.57
82506;SHT30;72144;51.444;10.560;2023-09-07T13:29:51;32.80;43.64
82506;SHT30;72144;51.444;10.560;2023-09-07T13:32:16;32.87;43.60
82506;SHT30;72144;51.444;10.560;2023-09-07T13:34:42;32.90;43.24
82506;SHT30;72144;51.444;10.560;2023-09-07T13:37:07;32.91;43.52
82506;SHT30;72144;51.444;10.560;2023-09-07T13:39:33;32.98;43.51
82506;SHT30;72144;51.444;10.560;2023-09-07T13:41:58;33.01;43.33
82506;SHT30;72144;51.444;10.560;2023-09-07T13:44:24;33.07;43.72
82506;SHT30;72144;51.444;10.560;2023-09-07T13:46:49;33.08;42.83
82506;SHT30;72144;51.444;10.560;2023-09-07T13:49:14;33.09;42.66
82506;SHT30;72144;51.444;10.560;2023-09-07T13:51:40;33.15;42.63
82506;SHT30;72144;51.444;10.560;2023-09-07T13:54:07;33.17;42.63
82506;SHT30;72144;51.444;10.560;2023-09-07T13:56:33;33.18;42.17
82506;SHT30;72144;51.444;10.560;2023-09-07T13:58:59;33.22;42.12
82506;SHT30;72144;51.444;10.560;2023-09-07T14:01:24;33.28;41.99
82506;SHT30;72144;51.444;10.560;2023-09-07T14:03:50;33.32;41.97
82506;SHT30;72144;51.444;10.560;2023-09-07T14:06:15;33.37;41.77
82506;SHT30;72144;51.444;10.560;2023-09-07T14:08:43;33.42;41.86
82506;SHT30;72144;51.444;10.560;2023-09-07T14:11:09;33.47;41.43
82506;SHT30;72144;51.444;10.560;2023-09-07T14:13:34;33.50;41.65
82506;SHT30;72144;51.444;10.560;2023-09-07T14:16:00;33.57;41.44
82506;SHT30;72144;51.444;10.560;2023-09-07T14:18:26;33.59;41.47
82506;SHT30;72144;51.444;10.560;2023-09-07T14:20:51;33.64;41.44
82506;SHT30;72144;51.444;10.560;2023-09-07T14:23:17;33.69;41.36
82506;SHT30;72144;51.444;10.560;2023-09-07T14:25:46;33.71;41.43
82506;SHT30;72144;51.444;10.560;2023-09-07T14:28:12;33.76;41.35
82506;SHT30;72144;51.444;10.560;2023-09-07T14:30:38;33.76;41.55
82506;SHT30;72144;51.444;10.560;2023-09-07T14:33:03;33.78;41.36
82506;SHT30;72144;51.444;10.560;2023-09-07T14:35:29;33.76;41.34
82506;SHT30;72144;51.444;10.560;2023-09-07T14:37:55;33.80;41.58
82506;SHT30;72144;51.444;10.560;2023-09-07T14:40:20;33.82;41.34
82506;SHT30;72144;51.444;10.560;2023-09-07T14:42:49;33.82;41.59
82506;SHT30;72144;51.444;10.560;2023-09-07T14:45:15;33.84;41.63
82506;SHT30;72144;51.444;10.560;2023-09-07T14:47:41;33.86;40.27
82506;SHT30;72144;51.444;10.560;2023-09-07T14:50:07;33.87;41.29
82506;SHT30;72144;51.444;10.560;2023-09-07T14:52:32;33.86;41.08
82506;SHT30;72144;51.444;10.560;2023-09-07T14:55:03;33.87;40.75
82506;SHT30;72144;51.444;10.560;2023-09-07T14:57:28;33.84;40.47
82506;SHT30;72144;51.444;10.560;2023-09-07T14:59:53;33.87;40.91
82506;SHT30;72144;51.444;10.560;2023-09-07T15:02:19;33.86;40.69
82506;SHT30;72144;51.444;10.560;2023-09-07T15:04:44;33.87;40.72
82506;SHT30;72144;51.444;10.560;2023-09-07T15:07:10;33.88;40.98
82506;SHT30;72144;51.444;10.560;2023-09-07T15:09:35;33.88;40.76
82506;SHT30;72144;51.444;10.560;2023-09-07T15:12:01;33.90;40.67